Time;durP1;ratioP1;P1;durP2;ratioP2;P2;SDS_P1;SDS_P2;PMS_P1;PMS_P2;Temp;Humidity;BMP_temperature;BMP_pressure;BME280_temperature;BME280_humidity;BME280_pressure;Samples;Min_cycle;Max_cycle;Signal;HPM_P1;HPM_P2
2021/12/21 00:01:14;;;;;;;3.35;2.35;;;;;;;25.10;32.08;97265.59;4965040;28;20751;-31
2021/12/21 00:03:39;;;;;;;2.80;2.03;;;;;;;25.09;32.17;97261.28;4983612;28;20069;-30
2021/12/21 00:06:04;;;;;;;5.50;2.20;;;;;;;25.09;32.28;97258.66;4982520;28;20026;-30
2021/12/21 00:08:30;;;;;;;5.63;2.35;;;;;;;25.09;31.96;97250.78;4984129;28;20181;-30
2021/12/21 00:10:57;;;;;;;3.38;1.92;;;;;;;25.08;31.99;97247.28;4982424;28;20041;-28
2021/12/21 00:16:00;;;;;;;3.95;2.75;;;;;;;25.08;32.07;97238.56;4981445;28;20034;-31
2021/12/21 00:18:33;;;;;;;4.32;2.50;;;;;;;25.07;31.96;97235.13;4982971;28;20036;-29
2021/12/21 00:23:35;;;;;;;3.38;2.00;;;;;;;25.08;32.09;97241.19;4980048;28;20152;-29
2021/12/21 00:26:03;;;;;;;5.40;2.20;;;;;;;25.07;32.02;97242.13;4988002;28;20947;-29
2021/12/21 00:28:33;;;;;;;7.15;2.58;;;;;;;25.05;31.92;97231.69;4984021;28;20030;-29
2021/12/21 00:30:58;;;;;;;3.45;2.30;;;;;;;25.08;31.95;97230.69;4987117;28;20300;-30
2021/12/21 00:33:24;;;;;;;4.47;2.50;;;;;;;25.05;32.20;97227.31;4982718;28;20497;-26
2021/12/21 00:35:49;;;;;;;3.72;2.50;;;;;;;25.01;32.01;97219.63;4982569;28;20041;-30
2021/12/21 00:38:15;;;;;;;3.25;2.20;;;;;;;25.04;32.04;97223.00;4980480;28;20033;-29
2021/12/21 00:40:40;;;;;;;3.72;2.40;;;;;;;25.04;31.97;97224.75;4983854;28;20961;-27
2021/12/21 00:43:05;;;;;;;4.07;2.28;;;;;;;25.03;32.00;97221.28;4984984;28;20507;-29
2021/12/21 00:45:31;;;;;;;5.15;2.35;;;;;;;25.03;31.92;97223.06;4963194;28;20411;-29
2021/12/21 00:47:56;;;;;;;2.70;2.20;;;;;;;25.03;31.90;97223.91;4980846;28;20041;-30
2021/12/21 00:50:22;;;;;;;3.85;2.60;;;;;;;25.02;31.83;97222.19;4982882;28;20029;-32
2021/12/21 00:52:48;;;;;;;7.40;2.80;;;;;;;25.02;31.91;97222.19;4981598;28;20037;-29
2021/12/21 00:55:14;;;;;;;4.07;2.63;;;;;;;25.02;31.90;97219.56;4981262;28;20989;-29
2021/12/21 00:57:40;;;;;;;3.70;2.70;;;;;;;25.02;32.00;97216.94;4980231;28;20088;-30
2021/12/21 01:00:06;;;;;;;6.80;2.70;;;;;;;25.02;31.93;97216.94;4964686;28;20456;-28
2021/12/21 01:02:32;;;;;;;3.83;2.33;;;;;;;25.01;31.86;97217.00;4979322;28;20041;-28
2021/12/21 01:04:58;;;;;;;4.10;2.60;;;;;;;25.01;31.78;97210.00;4980348;28;20029;-27
2021/12/21 01:07:32;;;;;;;3.33;2.55;;;;;;;25.00;31.89;97208.31;4988182;28;20029;-28
2021/12/21 01:20:42;;;;;;;2.63;2.28;;;;;;;24.98;31.77;97210.13;4982474;28;20064;-31
2021/12/21 01:26:18;;;;;;;4.60;2.40;;;;;;;24.97;31.81;97207.59;4981325;28;20031;-29
2021/12/21 01:28:46;;;;;;;4.18;2.38;;;;;;;24.97;31.59;97218.91;4981667;28;20050;-29
2021/12/21 01:36:48;;;;;;;3.67;2.45;;;;;;;24.96;31.93;97218.97;4980516;28;20041;-29
2021/12/21 01:39:43;;;;;;;4.05;2.40;;;;;;;24.96;31.81;97218.97;4981345;28;20562;-32
2021/12/21 01:42:11;;;;;;;5.00;2.45;;;;;;;24.95;31.71;97205.03;4982069;28;20030;-30
2021/12/21 01:50:05;;;;;;;4.00;2.33;;;;;;;24.94;31.60;97202.47;4980867;28;20045;-31
2021/12/21 01:52:31;;;;;;;3.70;2.60;;;;;;;24.93;31.66;97206.84;4982686;28;20026;-31
2021/12/21 01:54:56;;;;;;;3.70;2.13;;;;;;;24.93;31.60;97206.84;4989167;28;20029;-29
2021/12/21 01:57:22;;;;;;;3.38;2.33;;;;;;;24.92;31.64;97211.25;4983178;28;20030;-31
2021/12/21 01:59:47;;;;;;;3.10;2.33;;;;;;;24.92;31.81;97205.16;4984716;28;20041;-30
2021/12/21 02:02:15;;;;;;;6.60;2.42;;;;;;;24.94;31.76;97207.72;4984331;28;20065;-28
2021/12/21 02:04:40;;;;;;;4.40;2.20;;;;;;;24.92;31.65;97205.16;4985558;28;20664;-29
2021/12/21 02:07:06;;;;;;;4.07;2.50;;;;;;;24.91;31.68;97200.84;4987337;28;20041;-29
2021/12/21 02:09:37;;;;;;;3.47;2.38;;;;;;;24.91;31.65;97199.06;4971425;28;20041;-29
2021/12/21 02:12:07;;;;;;;2.80;2.10;;;;;;;24.91;31.54;97192.97;4981747;28;20037;-28
2021/12/21 02:14:33;;;;;;;2.88;2.28;;;;;;;24.91;31.56;97185.09;4963656;28;20048;-29
2021/12/21 02:19:35;;;;;;;3.53;2.40;;;;;;;24.91;31.55;97195.59;4970117;28;20312;-28
2021/12/21 02:22:11;;;;;;;3.03;2.10;;;;;;;24.90;31.75;97199.16;4987063;28;20132;-30
2021/12/21 02:25:08;;;;;;;3.70;2.40;;;;;;;24.91;31.72;97200.84;4988113;28;20018;-29
2021/12/21 02:27:29;;;;;;;2.72;2.20;;;;;;;24.90;31.60;97199.16;4986443;28;20034;-32
2021/12/21 02:29:54;;;;;;;3.50;2.28;;;;;;;24.85;31.55;97187.97;4988272;28;20547;-29
2021/12/21 02:32:20;;;;;;;2.85;2.03;;;;;;;24.90;31.64;97196.53;4963738;28;20030;-32
2021/12/21 02:34:46;;;;;;;3.90;2.80;;;;;;;24.89;31.66;97194.78;4965705;28;20137;-28
2021/12/21 02:37:11;;;;;;;2.58;2.15;;;;;;;24.89;31.50;97189.56;4984997;28;20420;-28
2021/12/21 02:39:37;;;;;;;3.20;2.10;;;;;;;24.89;31.55;97194.78;4983768;28;20044;-32
2021/12/21 02:42:04;;;;;;;3.53;2.22;;;;;;;24.88;31.51;97188.72;4987712;28;20068;-28
2021/12/21 02:44:29;;;;;;;3.83;2.17;;;;;;;24.89;31.53;97184.31;4974978;28;20030;-30
2021/12/21 02:46:55;;;;;;;3.20;1.80;;;;;;;24.88;31.59;97187.84;4981619;28;20088;-30
2021/12/21 02:49:20;;;;;;;3.00;2.17;;;;;;;24.87;31.68;97191.41;4983847;28;20029;-30
2021/12/21 02:51:46;;;;;;;3.05;2.10;;;;;;;24.87;31.50;97187.00;4985068;28;20203;-27
2021/12/21 02:54:12;;;;;;;3.47;2.20;;;;;;;24.88;31.56;97182.63;4966494;28;20771;-31
2021/12/21 02:56:38;;;;;;;2.55;1.88;;;;;;;24.87;31.56;97183.53;4982241;28;20540;-32
2021/12/21 02:59:03;;;;;;;3.25;2.15;;;;;;;24.86;31.58;97184.47;4983941;28;20038;-30
2021/12/21 03:01:29;;;;;;;2.88;1.95;;;;;;;24.86;31.56;97189.72;4985360;28;20132;-29
2021/12/21 03:03:55;;;;;;;2.60;1.85;;;;;;;24.85;31.50;97182.72;4981770;28;20112;-29
2021/12/21 03:09:10;;;;;;;3.25;2.08;;;;;;;24.84;31.47;97181.91;4985728;28;20680;-31
2021/12/21 03:11:47;;;;;;;2.83;1.92;;;;;;;24.84;31.41;97187.16;4983819;28;20112;-28
2021/12/21 03:14:13;;;;;;;2.55;1.90;;;;;;;24.84;31.60;97181.03;4981357;28;20033;-27
2021/12/21 03:16:38;;;;;;;5.00;2.78;;;;;;;24.82;31.38;97182.84;4983297;28;20038;-29
2021/12/21 03:19:05;;;;;;;7.75;3.63;;;;;;;24.82;30.63;97186.31;4985321;28;20129;-29
2021/12/21 03:21:30;;;;;;;5.55;2.65;;;;;;;24.80;30.74;97186.38;4964582;28;20411;-30
2021/12/21 03:23:56;;;;;;;6.38;2.33;;;;;;;24.78;30.95;97177.72;4981392;28;20034;-30
2021/12/21 03:26:21;;;;;;;3.78;2.20;;;;;;;24.77;31.09;97181.28;4983528;28;20022;-31
2021/12/21 03:28:47;;;;;;;4.10;2.20;;;;;;;24.77;31.33;97178.66;4984629;28;20109;-29
2021/12/21 03:31:12;;;;;;;5.75;2.30;;;;;;;24.77;31.28;97176.03;4981995;28;20038;-30
2021/12/21 03:33:38;;;;;;;6.25;2.28;;;;;;;24.77;31.45;97181.28;4982455;28;20037;-29
2021/12/21 03:36:04;;;;;;;3.92;2.22;;;;;;;24.77;31.25;97181.28;4982149;28;20413;-29
2021/12/21 03:38:30;;;;;;;7.20;2.38;;;;;;;24.77;31.29;97188.28;4982172;28;20040;-29
2021/12/21 03:41:02;;;;;;;3.28;1.90;;;;;;;24.76;31.48;97184.81;4962581;28;20018;-31
2021/12/21 03:43:29;;;;;;;4.10;2.00;;;;;;;24.77;31.21;97183.91;4985116;28;20034;-29
2021/12/21 03:46:04;;;;;;;3.25;2.10;;;;;;;24.75;31.40;97183.09;4983971;28;20223;-27
2021/12/21 03:48:29;;;;;;;3.45;2.13;;;;;;;24.75;31.43;97180.47;4982594;28;20018;-30
2021/12/21 03:50:55;;;;;;;5.15;2.20;;;;;;;24.76;31.38;97184.81;4988149;28;20050;-26
2021/12/21 03:53:20;;;;;;;3.40;1.83;;;;;;;24.76;31.37;97186.59;4987119;28;20471;-31
2021/12/21 03:55:45;;;;;;;4.25;2.05;;;;;;;24.76;31.53;97184.81;4989688;28;20042;-29
2021/12/21 03:58:11;;;;;;;2.85;1.77;;;;;;;24.75;31.38;97183.09;4987223;28;20030;-28
2021/12/21 04:00:36;;;;;;;2.95;2.15;;;;;;;24.75;31.40;97180.47;4986817;28;21635;-30
2021/12/21 04:03:02;;;;;;;3.10;1.95;;;;;;;24.75;31.34;97172.63;4987713;28;20026;-29
2021/12/21 04:05:27;;;;;;;3.58;1.85;;;;;;;24.76;31.48;97179.59;4985720;28;20026;-29
2021/12/21 04:07:53;;;;;;;2.65;1.65;;;;;;;24.74;31.23;97173.53;4992262;28;20022;-28
2021/12/21 04:10:18;;;;;;;3.10;1.70;;;;;;;24.74;31.25;97176.16;4990477;28;20034;-32
2021/12/21 04:12:43;;;;;;;2.65;1.83;;;;;;;24.74;31.53;97176.16;4987084;28;20026;-29
2021/12/21 04:15:11;;;;;;;3.60;1.80;;;;;;;24.74;31.30;97178.78;4989650;28;20034;-28
2021/12/21 04:17:36;;;;;;;3.42;1.75;;;;;;;24.74;31.42;97173.53;4982782;28;20030;-28
2021/12/21 04:20:02;;;;;;;2.35;1.50;;;;;;;24.74;31.41;97178.78;4988083;28;20698;-31
2021/12/21 04:22:28;;;;;;;4.80;1.90;;;;;;;24.73;31.33;97179.72;4988021;28;20134;-30
2021/12/21 04:24:53;;;;;;;2.55;1.75;;;;;;;24.73;31.38;97184.94;4989558;28;20284;-29
2021/12/21 04:27:19;;;;;;;2.97;1.77;;;;;;;24.73;31.28;97176.22;4988786;28;20205;-32
2021/12/21 04:29:44;;;;;;;2.28;1.73;;;;;;;24.73;31.53;97176.22;4989361;28;20430;-28
2021/12/21 04:32:10;;;;;;;3.05;1.65;;;;;;;24.71;31.52;97181.53;4990158;28;20069;-29
2021/12/21 04:34:36;;;;;;;2.35;1.45;;;;;;;24.71;31.51;97178.91;4989394;28;20646;-28
2021/12/21 04:37:01;;;;;;;2.72;1.92;;;;;;;24.70;31.40;97182.44;4986322;28;20034;-28
2021/12/21 04:41:52;;;;;;;3.67;1.90;;;;;;;24.70;31.48;97182.44;4990220;28;20030;-30
2021/12/21 04:44:17;;;;;;;3.78;1.80;;;;;;;24.69;31.57;97172.88;4984959;28;20030;-27
2021/12/21 04:46:43;;;;;;;2.50;1.63;;;;;;;24.70;31.51;97174.59;4988482;28;20022;-30
2021/12/21 04:49:08;;;;;;;1.80;1.52;;;;;;;24.70;31.34;97173.75;4976734;28;20029;-27
2021/12/21 04:51:34;;;;;;;2.33;1.65;;;;;;;24.70;31.33;97164.09;4986754;28;20033;-27
2021/12/21 04:53:59;;;;;;;2.17;1.55;;;;;;;24.68;31.50;97171.19;4987225;28;20037;-37
2021/12/21 04:56:25;;;;;;;3.58;1.80;;;;;;;24.68;31.42;97176.44;4965479;28;20130;-29
2021/12/21 04:58:50;;;;;;;3.80;1.50;;;;;;;24.67;31.34;97172.09;4988809;28;20614;-30
2021/12/21 05:01:15;;;;;;;2.88;1.90;;;;;;;24.68;31.33;97176.44;4989156;28;20030;-29
2021/12/21 05:03:41;;;;;;;3.65;1.73;;;;;;;24.67;31.31;97169.47;4986111;28;20045;-30
2021/12/21 05:06:06;;;;;;;3.22;1.70;;;;;;;24.66;31.40;97171.25;4988490;28;20026;-31
2021/12/21 05:08:37;;;;;;;2.70;1.88;;;;;;;24.67;31.34;97170.31;4989201;28;20317;-30
2021/12/21 05:11:04;;;;;;;2.50;1.70;;;;;;;24.66;31.33;97173.88;4989304;28;20475;-31
2021/12/21 05:13:32;;;;;;;2.60;1.55;;;;;;;24.65;31.36;97160.84;4985351;28;20556;-29
2021/12/21 05:15:57;;;;;;;2.55;1.70;;;;;;;24.65;31.51;97158.22;4988589;28;20113;-30
2021/12/21 05:18:23;;;;;;;1.85;1.58;;;;;;;24.63;31.52;97160.91;4972373;28;20034;-29
2021/12/21 05:20:48;;;;;;;1.60;1.50;;;;;;;24.64;31.44;97165.22;4971419;28;20098;-30
2021/12/21 05:23:14;;;;;;;1.88;1.50;;;;;;;24.64;31.42;97164.38;4970461;28;20053;-29
2021/12/21 05:25:39;;;;;;;2.15;1.40;;;;;;;24.64;31.40;97167.00;4969941;28;20033;-30
2021/12/21 05:28:06;;;;;;;2.35;1.50;;;;;;;24.63;31.54;97152.16;4986504;28;20035;-29
2021/12/21 05:30:34;;;;;;;1.45;1.15;;;;;;;24.62;31.45;97155.72;4972383;28;20041;-26
2021/12/21 05:32:59;;;;;;;2.58;1.55;;;;;;;24.62;31.51;97158.34;4989224;28;20056;-28
2021/12/21 05:35:26;;;;;;;2.08;1.60;;;;;;;24.62;31.34;97158.34;4973695;28;20034;-28
2021/12/21 05:37:55;;;;;;;2.63;1.50;;;;;;;24.61;31.59;97160.13;4986206;28;20314;-30
2021/12/21 05:40:20;;;;;;;2.95;1.88;;;;;;;24.62;31.37;97147.84;4993183;28;20638;-29
2021/12/21 05:42:46;;;;;;;2.22;1.65;;;;;;;24.61;31.48;97148.78;4987466;28;20044;-30
2021/12/21 05:45:15;;;;;;;3.05;1.70;;;;;;;24.60;31.44;97142.66;4993406;28;20045;-30
2021/12/21 05:47:40;;;;;;;3.15;1.58;;;;;;;24.60;31.50;97147.91;4990782;28;20030;-30
2021/12/21 05:50:09;;;;;;;3.28;1.77;;;;;;;24.56;31.28;97140.25;4990952;28;20429;-29
2021/12/21 05:52:35;;;;;;;2.47;1.50;;;;;;;24.60;31.51;97147.09;4972624;28;20025;-32
2021/12/21 05:55:00;;;;;;;2.85;1.40;;;;;;;24.60;31.37;97147.09;4975827;28;20115;-30
2021/12/21 05:57:25;;;;;;;2.33;1.40;;;;;;;24.60;31.40;97152.31;4990031;28;20034;-32
2021/12/21 05:59:51;;;;;;;2.05;1.58;;;;;;;24.60;31.28;97152.31;4989711;28;20040;-30
2021/12/21 06:02:17;;;;;;;2.95;1.60;;;;;;;24.60;31.41;97157.56;4990643;28;20025;-29
2021/12/21 06:04:43;;;;;;;12.27;3.35;;;;;;;24.58;30.48;97154.13;4992953;28;20519;-31
2021/12/21 06:07:08;;;;;;;3.33;2.20;;;;;;;24.58;30.53;97156.75;4988444;28;20026;-28
2021/12/21 06:09:34;;;;;;;3.67;1.90;;;;;;;24.57;30.78;97157.69;4991945;28;20030;-28
2021/12/21 06:27:50;;;;;;;3.75;1.67;;;;;;;24.57;31.42;97144.59;4988365;28;20166;-29
2021/12/21 06:30:16;;;;;;;4.03;1.70;;;;;;;24.57;31.31;97155.94;4991022;28;20030;-36
2021/12/21 06:32:41;;;;;;;3.45;1.92;;;;;;;24.57;31.13;97147.19;4992100;28;20038;-30
2021/12/21 06:35:08;;;;;;;2.92;1.52;;;;;;;24.57;31.19;97149.81;4990634;28;20029;-31
2021/12/21 06:37:33;;;;;;;2.15;1.40;;;;;;;24.57;31.40;97149.81;4985299;28;20511;-29
2021/12/21 06:39:59;;;;;;;3.70;1.63;;;;;;;24.58;31.32;97151.53;4988112;28;20029;-30
2021/12/21 06:42:26;;;;;;;2.97;1.90;;;;;;;24.58;31.26;97152.38;4991263;28;20084;-30
2021/12/21 06:44:56;;;;;;;2.60;1.40;;;;;;;24.58;31.27;97155.00;4992027;28;20038;-28
2021/12/21 06:52:50;;;;;;;2.20;1.50;;;;;;;24.60;31.27;97149.69;4986607;28;20041;-31
2021/12/21 06:55:16;;;;;;;1.75;1.55;;;;;;;24.60;31.25;97155.78;4992740;28;20026;-28
2021/12/21 06:57:43;;;;;;;1.95;1.50;;;;;;;24.60;31.20;97157.56;4988095;28;20030;-31
2021/12/21 07:00:11;;;;;;;1.95;1.30;;;;;;;24.61;31.18;97154.88;4990227;28;20843;-27
2021/12/21 07:02:37;;;;;;;3.60;1.88;;;;;;;24.60;31.35;97153.16;4988547;28;20140;-28
2021/12/21 07:05:02;;;;;;;2.60;1.67;;;;;;;24.60;31.26;97158.41;4990118;28;20112;-28
2021/12/21 07:07:28;;;;;;;3.80;1.70;;;;;;;24.62;31.09;97158.34;4988541;28;20037;-29
2021/12/21 07:10:00;;;;;;;1.95;1.40;;;;;;;24.63;31.28;97162.66;4988399;28;20395;-28
2021/12/21 07:18:52;;;;;;;2.75;1.70;;;;;;;24.64;31.32;97159.97;4969534;28;20212;-29
2021/12/21 07:20:46;;;;;;;2.38;1.85;;;;;;;24.63;31.28;97157.41;4959113;28;20049;-28
2021/12/21 07:23:11;;;;;;;2.42;1.67;;;;;;;24.64;31.10;97159.97;4987930;28;20104;-28
2021/12/21 07:25:37;;;;;;;3.38;1.83;;;;;;;24.64;31.05;97159.13;4985301;28;20026;-29
2021/12/21 07:28:02;;;;;;;4.57;2.03;;;;;;;24.63;31.26;97167.88;4988802;28;20531;-29
2021/12/21 07:30:28;;;;;;;8.45;2.55;;;;;;;24.64;31.04;97161.75;4934204;28;20096;-28
2021/12/21 07:32:53;;;;;;;10.05;2.70;;;;;;;24.64;31.30;97169.63;4986497;28;21027;-29
2021/12/21 07:35:19;;;;;;;9.10;3.58;;;;;;;24.64;30.76;97174.84;4978510;28;20034;-30
2021/12/21 07:37:44;;;;;;;9.65;3.05;;;;;;;24.63;31.16;97176.63;4981011;28;20535;-28
2021/12/21 07:40:10;;;;;;;14.88;5.97;;;;;;;24.64;30.21;97182.72;4983787;28;20104;-27
2021/12/21 07:42:35;;;;;;;9.57;4.32;;;;;;;24.62;30.46;97177.53;4982188;28;20803;-28
2021/12/21 07:45:01;;;;;;;12.13;4.07;;;;;;;24.62;30.58;97180.16;4980753;28;20038;-27
2021/12/21 07:47:26;;;;;;;9.35;3.90;;;;;;;24.63;30.87;97186.22;4982451;28;20026;-27
2021/12/21 07:49:52;;;;;;;9.88;3.85;;;;;;;24.64;30.67;97180.09;4970817;28;20026;-27
2021/12/21 07:52:17;;;;;;;14.68;3.70;;;;;;;24.63;30.86;97176.63;4962112;28;20157;-26
2021/12/21 07:54:43;;;;;;;9.80;3.72;;;;;;;24.65;30.92;97187.03;4980871;28;20033;-31
2021/12/21 07:57:09;;;;;;;12.05;3.60;;;;;;;24.66;31.05;97183.50;4964351;28;20210;-31
2021/12/21 07:59:35;;;;;;;11.68;3.70;;;;;;;24.67;30.92;97190.44;4980542;28;20052;-37
2021/12/21 08:02:01;;;;;;;8.07;3.50;;;;;;;24.68;31.08;97184.31;4981222;28;20512;-30
2021/12/21 08:04:28;;;;;;;11.25;3.47;;;;;;;24.70;31.00;97186.84;4980050;28;20042;-27
2021/12/21 08:06:56;;;;;;;9.35;3.75;;;;;;;24.71;31.20;97186.75;4981774;28;20057;-33
2021/12/21 08:09:25;;;;;;;8.85;3.42;;;;;;;24.71;31.21;97184.16;4966250;28;20037;-30
2021/12/21 08:14:34;;;;;;;8.95;3.72;;;;;;;24.75;31.04;97188.34;4980464;28;20523;-30
2021/12/21 08:17:00;;;;;;;7.03;3.15;;;;;;;24.76;31.26;97184.81;4982412;28;20041;-31
2021/12/21 08:19:25;;;;;;;9.45;3.55;;;;;;;24.78;31.27;97188.22;4979388;28;20022;-30
2021/12/21 08:21:50;;;;;;;6.20;3.00;;;;;;;24.79;31.12;97189.91;4982238;28;20791;-33
2021/12/21 08:24:16;;;;;;;12.40;3.38;;;;;;;24.82;31.31;97188.09;4979262;28;20038;-28
2021/12/21 08:26:41;;;;;;;12.88;3.90;;;;;;;24.82;30.62;97188.09;4986218;28;20037;-28
2021/12/21 08:29:07;;;;;;;9.82;3.72;;;;;;;24.83;30.68;97195.91;4982293;28;20486;-29
2021/12/21 08:31:33;;;;;;;8.02;3.63;;;;;;;24.82;30.74;97188.09;4963057;28;20049;-33
2021/12/21 08:33:59;;;;;;;8.50;3.55;;;;;;;24.83;30.70;97185.41;4978618;28;20119;-25
2021/12/21 08:36:24;;;;;;;10.43;3.70;;;;;;;24.84;30.84;97191.53;4982389;28;20051;-33
2021/12/21 08:38:50;;;;;;;6.80;3.65;;;;;;;24.83;30.89;97197.66;4984395;28;20027;-30
2021/12/21 08:41:15;;;;;;;6.07;3.30;;;;;;;24.84;30.81;97199.38;4984153;28;20037;-33
2021/12/21 08:43:41;;;;;;;9.00;3.40;;;;;;;24.85;31.03;97201.94;4953657;28;20493;-30
2021/12/21 08:46:09;;;;;;;6.65;3.22;;;;;;;24.86;30.84;97211.50;4982545;28;20034;-32
2021/12/21 08:48:35;;;;;;;12.43;3.55;;;;;;;24.88;31.08;97206.22;4968095;28;20041;-28
2021/12/21 08:51:01;;;;;;;9.63;3.65;;;;;;;24.90;30.99;97202.59;4980832;28;20049;-29
2021/12/21 08:53:26;;;;;;;7.28;3.20;;;;;;;24.91;30.94;97198.22;4983124;28;20037;-32
2021/12/21 08:55:52;;;;;;;7.25;3.20;;;;;;;24.92;30.95;97200.78;4981245;28;20026;-30
2021/12/21 08:58:18;;;;;;;5.38;3.15;;;;;;;24.96;31.14;97193.63;4981061;28;20045;-31
2021/12/21 09:00:43;;;;;;;9.32;3.50;;;;;;;24.97;30.99;97186.63;4964396;28;20637;-28
2021/12/21 09:03:09;;;;;;;6.35;3.13;;;;;;;25.01;31.09;97183.78;4963627;28;20034;-33
2021/12/21 09:05:34;;;;;;;4.80;2.85;;;;;;;25.03;30.98;97181.97;4964603;28;20068;-30
2021/12/21 09:08:01;;;;;;;6.05;3.00;;;;;;;25.07;30.93;97179.19;4989265;28;20056;-28
2021/12/21 09:10:27;;;;;;;5.07;2.97;;;;;;;25.11;30.79;97178.13;4987144;28;20030;-30
2021/12/21 09:12:52;;;;;;;5.85;3.00;;;;;;;25.13;30.79;97176.31;4981874;28;20030;-33
2021/12/21 09:15:18;;;;;;;9.13;5.40;;;;;;;25.15;30.03;97179.69;4983345;28;20063;-30
2021/12/21 09:17:45;;;;;;;21.35;11.25;;;;;;;25.00;21.71;97170.72;4983686;28;20039;-30
2021/12/21 09:20:13;;;;;;;18.33;12.18;;;;;;;24.74;19.76;97175.28;4984549;28;20069;-29
2021/12/21 09:22:39;;;;;;;19.35;11.75;;;;;;;24.39;18.68;97178.50;4982389;28;20130;-36
2021/12/21 09:25:04;;;;;;;20.45;11.18;;;;;;;24.03;18.88;97193.00;4983538;28;20033;-30
2021/12/21 09:27:30;;;;;;;33.67;12.55;;;;;;;23.74;20.52;97187.13;4979532;28;20535;-30
2021/12/21 09:29:55;;;;;;;20.83;10.32;;;;;;;23.55;22.05;97190.44;4983255;28;20038;-28
2021/12/21 09:32:21;;;;;;;24.77;9.85;;;;;;;23.45;23.35;97189.91;4982524;28;20251;-32
2021/12/21 09:34:46;;;;;;;18.13;9.23;;;;;;;23.41;23.99;97187.50;4980467;28;20888;-29
2021/12/21 09:37:17;;;;;;;18.30;8.85;;;;;;;23.38;24.50;97188.47;4975664;28;20030;-27
2021/12/21 09:39:47;;;;;;;14.45;8.48;;;;;;;23.43;25.06;97185.66;4982911;28;20034;-33
2021/12/21 09:42:14;;;;;;;16.75;8.18;;;;;;;23.47;25.76;97185.50;4984281;28;20041;-29
2021/12/21 09:44:40;;;;;;;17.98;9.05;;;;;;;23.53;25.88;97180.94;4986849;28;20111;-31
2021/12/21 09:47:08;;;;;;;23.30;7.97;;;;;;;23.58;26.14;97181.63;4988842;28;20022;-30
2021/12/21 09:49:33;;;;;;;14.60;7.90;;;;;;;23.63;26.11;97177.06;4984568;28;20026;-30
2021/12/21 09:51:59;;;;;;;23.27;7.85;;;;;;;23.68;26.31;97180.34;4987344;28;20033;-30
2021/12/21 09:54:24;;;;;;;16.65;7.80;;;;;;;23.72;26.67;97176.69;4971478;28;20026;-31
2021/12/21 09:56:49;;;;;;;15.50;7.55;;;;;;;23.78;26.86;97172.13;4947844;28;20064;-28
2021/12/21 09:59:15;;;;;;;12.40;7.20;;;;;;;23.81;26.82;97170.28;4987234;28;20022;-30
2021/12/21 10:01:40;;;;;;;15.25;7.50;;;;;;;23.86;26.94;97173.56;4970471;28;20476;-31
2021/12/21 10:04:06;;;;;;;12.18;6.72;;;;;;;23.89;27.31;97167.34;4987435;28;20469;-28
2021/12/21 10:06:41;;;;;;;16.27;6.80;;;;;;;23.93;27.29;97168.94;4954945;28;20040;-30
2021/12/21 10:09:07;;;;;;;10.77;6.88;;;;;;;23.97;27.32;97167.91;4954429;28;20710;-31
2021/12/21 10:11:41;;;;;;;13.82;6.78;;;;;;;24.00;27.49;97161.69;4950988;28;20030;-32
2021/12/21 10:14:06;;;;;;;13.38;6.40;;;;;;;24.04;27.52;97162.41;4968431;28;20044;-32
2021/12/21 10:16:31;;;;;;;14.75;7.13;;;;;;;24.07;27.73;97165.78;4991456;28;20448;-31
2021/12/21 10:18:57;;;;;;;14.10;6.40;;;;;;;24.10;27.83;97170.06;4993879;28;20030;-29
2021/12/21 10:21:22;;;;;;;19.45;7.28;;;;;;;24.12;27.92;97170.84;4990879;28;20022;-28
2021/12/21 10:23:50;;;;;;;16.88;7.05;;;;;;;24.15;28.18;97162.88;4972462;28;20094;-30
2021/12/21 10:26:23;;;;;;;17.65;7.20;;;;;;;24.18;28.64;97162.72;4980460;28;20026;-29
2021/12/21 10:28:53;;;;;;;13.88;6.85;;;;;;;24.19;29.13;97159.22;4981491;28;20064;-32
2021/12/21 10:31:25;;;;;;;17.63;6.40;;;;;;;24.21;29.91;97165.22;4980256;28;20512;-30
2021/12/21 10:33:51;;;;;;;14.40;6.28;;;;;;;24.22;30.19;97151.22;4988499;28;20598;-30
2021/12/21 10:36:17;;;;;;;11.75;6.40;;;;;;;24.23;30.54;97155.56;4972982;28;20022;-29
2021/12/21 10:38:48;;;;;;;13.05;6.32;;;;;;;24.25;30.61;97153.72;4991658;28;20771;-29
2021/12/21 10:41:16;;;;;;;14.70;6.67;;;;;;;24.26;30.88;97149.34;4990710;28;20029;-28
2021/12/21 10:43:41;;;;;;;12.35;6.45;;;;;;;24.27;30.92;97146.66;4974958;28;20034;-31
2021/12/21 10:46:08;;;;;;;11.02;6.72;;;;;;;24.28;30.98;97142.25;4989998;28;20522;-28
2021/12/21 10:48:36;;;;;;;12.95;6.28;;;;;;;24.30;30.93;97136.97;4960173;28;20034;-28
2021/12/21 10:51:02;;;;;;;13.07;6.07;;;;;;;24.31;31.29;97141.28;4990555;28;20029;-28
2021/12/21 10:53:28;;;;;;;12.02;6.18;;;;;;;24.33;31.01;97140.31;4989846;28;20108;-27
2021/12/21 10:56:07;;;;;;;12.40;6.78;;;;;;;24.34;31.23;97133.31;4989918;28;20026;-27
2021/12/21 10:58:35;;;;;;;13.20;6.13;;;;;;;24.36;31.42;97134.94;4988810;28;20038;-29
2021/12/21 11:01:03;;;;;;;17.95;6.35;;;;;;;24.37;31.65;97128.78;4972731;28;20112;-27
2021/12/21 11:03:35;;;;;;;17.27;6.72;;;;;;;24.38;31.61;97132.25;4990858;28;20033;-28
2021/12/21 11:06:14;;;;;;;19.27;7.03;;;;;;;24.40;31.91;97130.41;4991048;28;20050;-28
2021/12/21 11:08:41;;;;;;;19.95;7.57;;;;;;;24.42;32.02;97131.22;4985742;28;20029;-31
2021/12/21 11:11:11;;;;;;;17.15;6.47;;;;;;;24.44;31.87;97126.75;4991507;28;20026;-32
2021/12/21 11:13:37;;;;;;;20.42;7.07;;;;;;;24.47;31.51;97124.00;4971403;28;20523;-31
2021/12/21 11:16:06;;;;;;;13.25;6.50;;;;;;;24.49;31.88;97124.78;4981906;28;20056;-29
2021/12/21 11:18:33;;;;;;;15.25;6.28;;;;;;;24.52;31.71;97124.66;4983191;28;20578;-29
2021/12/21 11:20:58;;;;;;;12.30;5.93;;;;;;;24.56;31.51;97119.31;4983167;28;20121;-27
2021/12/21 11:23:24;;;;;;;12.73;6.05;;;;;;;24.57;31.45;97111.38;4984327;28;20990;-29
2021/12/21 11:25:53;;;;;;;11.20;5.65;;;;;;;24.59;31.68;97106.91;4950671;28;20603;-29
2021/12/21 11:28:29;;;;;;;18.60;6.53;;;;;;;24.60;31.75;97099.91;4964771;28;20036;-29
2021/12/21 11:30:58;;;;;;;21.88;6.22;;;;;;;24.62;31.77;97104.16;4966186;28;20026;-29
2021/12/21 11:33:25;;;;;;;16.17;5.90;;;;;;;24.62;32.05;97103.31;4979634;28;20036;-29
2021/12/21 11:38:34;;;;;;;13.95;5.18;;;;;;;24.67;31.84;97111.81;4966433;28;20141;-31
2021/12/21 11:41:00;;;;;;;14.07;5.40;;;;;;;24.67;32.53;97104.81;4962093;28;20077;-28
2021/12/21 11:43:33;;;;;;;12.60;5.05;;;;;;;24.69;32.57;97104.75;4941163;28;20054;-31
2021/12/21 11:46:09;;;;;;;9.63;5.50;;;;;;;24.71;32.72;97108.16;4956088;28;20030;-33
2021/12/21 11:48:49;;;;;;;12.48;4.55;;;;;;;24.69;32.75;97093.41;4965183;28;20026;-29
2021/12/21 11:51:15;;;;;;;10.93;4.57;;;;;;;24.74;32.79;97089.66;4948910;28;20680;-31
2021/12/21 11:53:40;;;;;;;12.57;4.50;;;;;;;24.77;32.76;97091.31;4965374;28;20033;-31
2021/12/21 11:56:07;;;;;;;15.70;4.32;;;;;;;24.77;33.02;97086.94;4964138;28;20021;-29
2021/12/21 11:58:38;;;;;;;12.90;4.60;;;;;;;24.78;33.13;97086.00;4954897;28;20022;-31
2021/12/21 12:01:20;;;;;;;9.63;4.40;;;;;;;24.80;33.39;97084.16;4989476;28;20038;-31
2021/12/21 12:04:00;;;;;;;18.10;4.32;;;;;;;24.80;33.29;97086.78;4984381;28;20080;-27
2021/12/21 12:06:26;;;;;;;15.15;4.18;;;;;;;24.81;33.58;97085.00;4974683;28;20033;-30
2021/12/21 12:08:59;;;;;;;16.10;5.22;;;;;;;24.83;33.56;97091.06;4986401;28;20034;-32
2021/12/21 12:11:27;;;;;;;22.42;5.78;;;;;;;24.84;33.62;97084.06;4977998;28;20032;-36
2021/12/21 12:14:22;;;;;;;28.70;5.97;;;;;;;24.84;33.54;97082.28;4954409;28;20030;-28
2021/12/21 12:16:58;;;;;;;25.27;6.43;;;;;;;24.86;33.53;97090.09;4962304;28;20046;-29
2021/12/21 12:19:31;;;;;;;22.52;6.18;;;;;;;24.87;33.38;97089.16;4971710;28;20026;-32
2021/12/21 12:22:00;;;;;;;26.88;6.15;;;;;;;24.87;33.63;97087.38;4988802;28;20507;-32
2021/12/21 12:24:36;;;;;;;26.05;6.32;;;;;;;24.89;33.66;97093.41;4988435;28;20033;-31
2021/12/21 12:27:22;;;;;;;25.52;5.70;;;;;;;24.90;33.75;97089.03;4989149;28;20036;-29
2021/12/21 12:29:56;;;;;;;23.55;5.00;;;;;;;24.91;33.67;97082.88;4988375;28;20447;-30
2021/12/21 12:33:02;;;;;;;30.85;6.05;;;;;;;24.92;33.73;97089.81;4988703;28;20144;-28
2021/12/21 12:35:33;;;;;;;22.05;5.32;;;;;;;24.93;33.91;97081.00;4967408;28;20266;-28
2021/12/21 12:38:01;;;;;;;21.13;5.47;;;;;;;24.95;33.72;97078.34;4986314;28;20041;-30
2021/12/21 12:40:32;;;;;;;26.52;5.50;;;;;;;24.95;33.88;97087.06;4990215;28;20177;-31
2021/12/21 12:43:15;;;;;;;23.87;5.03;;;;;;;24.97;33.92;97071.25;4973210;28;20388;-31